createdAt,value
2023-05-19T00:01:31.166Z,12.88
2023-05-19T00:06:33.550Z,14.07
2023-05-19T00:11:37.223Z,11.25
2023-05-19T00:16:40.466Z,13.68
2023-05-19T00:21:42.722Z,11.77
2023-05-19T00:26:44.776Z,9.48
2023-05-19T00:31:47.281Z,11.93
2023-05-19T00:36:49.441Z,11.32
2023-05-19T00:41:51.636Z,9.95
2023-05-19T00:46:53.814Z,12.77
2023-05-19T00:51:56.167Z,11.13
2023-05-19T00:56:59.142Z,12.18
2023-05-19T01:02:02.860Z,9.88
2023-05-19T01:07:05.342Z,11.82
2023-05-19T01:12:08.136Z,8.98
2023-05-19T01:17:16.135Z,12.52
2023-05-19T01:22:42.790Z,10.05
2023-05-19T01:28:16.194Z,17.30
2023-05-19T01:33:21.095Z,9.15
2023-05-19T01:38:25.083Z,7.93
2023-05-19T01:43:27.723Z,10.85
2023-05-19T01:48:30.489Z,12.73
2023-05-19T01:53:33.153Z,9.95
2023-05-19T01:58:46.954Z,10.90
2023-05-19T02:04:08.290Z,10.80
2023-05-19T02:09:14.462Z,13.82
2023-05-19T02:14:39.017Z,8.52
2023-05-19T02:19:43.426Z,10.15
2023-05-19T02:24:46.588Z,12.43
2023-05-19T02:29:48.829Z,20.65
2023-05-19T02:34:51.348Z,11.95
2023-05-19T02:39:54.600Z,13.75
2023-05-19T02:44:56.738Z,10.43
2023-05-19T02:49:58.813Z,12.65
2023-05-19T02:55:01.141Z,14.23
2023-05-19T03:00:04.581Z,11.43
2023-05-19T03:05:08.304Z,11.38
2023-05-19T03:10:10.586Z,12.15
2023-05-19T03:15:14.929Z,11.30
2023-05-19T03:20:17.280Z,11.27
2023-05-19T03:25:19.410Z,12.77
2023-05-19T03:30:22.122Z,12.68
2023-05-19T03:35:46.828Z,12.15
2023-05-19T03:40:49.827Z,13.13
2023-05-19T03:45:52.109Z,11.63
2023-05-19T03:51:19.957Z,15.27
2023-05-19T03:56:27.461Z,12.48
2023-05-19T04:01:29.709Z,11.30
2023-05-19T04:06:33.926Z,18.10
2023-05-19T04:11:37.059Z,13.23
2023-05-19T04:16:39.197Z,10.52
2023-05-19T04:21:41.233Z,13.07
2023-05-19T04:26:46.136Z,15.52
2023-05-19T04:31:50.258Z,8.70
2023-05-19T04:36:53.509Z,12.18
2023-05-19T04:41:57.292Z,12.43
2023-05-19T04:47:00.048Z,11.10
2023-05-19T04:52:02.426Z,11.32
2023-05-19T04:57:06.657Z,12.63
2023-05-19T05:02:12.616Z,15.27
2023-05-19T05:07:15.013Z,12.57
2023-05-19T05:12:18.849Z,11.48
2023-05-19T05:17:23.266Z,14.23
2023-05-19T05:22:26.076Z,12.45
2023-05-19T05:27:29.249Z,10.55
2023-05-19T05:32:32.351Z,13.43
2023-05-19T05:37:36.844Z,15.02
2023-05-19T05:42:38.975Z,14.80
2023-05-19T05:47:41.647Z,13.32
2023-05-19T05:52:47.642Z,13.50
2023-05-19T05:57:51.703Z,15.50
2023-05-19T06:02:54.058Z,19.70
2023-05-19T06:07:56.352Z,12.00
2023-05-19T06:13:01.660Z,13.35
2023-05-19T06:18:04.235Z,16.17
2023-05-19T06:23:06.622Z,14.70
2023-05-19T06:28:08.812Z,11.27
2023-05-19T06:33:11.022Z,15.48
2023-05-19T06:38:13.632Z,18.98
2023-05-19T06:43:16.106Z,13.73
2023-05-19T06:48:30.368Z,16.08
2023-05-19T06:53:33.920Z,12.25
2023-05-19T06:58:39.426Z,17.17
2023-05-19T07:03:41.956Z,12.80
2023-05-19T07:08:46.233Z,11.85
2023-05-19T07:13:49.001Z,12.15
2023-05-19T07:18:58.037Z,11.80
2023-05-19T07:24:00.620Z,13.18
2023-05-19T07:29:04.094Z,16.77
2023-05-19T07:34:06.302Z,10.25
2023-05-19T07:39:08.697Z,10.32
2023-05-19T07:44:10.953Z,17.58
2023-05-19T07:49:13.201Z,12.70
2023-05-19T07:54:15.414Z,10.70
2023-05-19T07:59:17.573Z,11.93
2023-05-19T08:04:19.750Z,12.65
2023-05-19T08:09:21.928Z,12.93
2023-05-19T08:14:23.991Z,10.73
2023-05-19T08:19:26.165Z,11.05
2023-05-19T08:24:32.737Z,11.38
2023-05-19T08:29:34.927Z,8.05
2023-05-19T08:34:37.169Z,11.00
2023-05-19T08:39:39.886Z,11.75
2023-05-19T08:44:43.906Z,10.30
2023-05-19T08:49:50.485Z,12.27
2023-05-19T08:55:04.517Z,12.93
2023-05-19T09:00:11.878Z,9.68
2023-05-19T09:05:16.465Z,9.25
2023-05-19T09:10:18.650Z,8.57
2023-05-19T09:15:22.311Z,9.35
2023-05-19T09:20:24.466Z,13.52
2023-05-19T09:25:26.720Z,11.07
2023-05-19T09:30:28.841Z,10.07
2023-05-19T09:35:31.276Z,8.93
2023-05-19T09:40:33.681Z,5.43
2023-05-19T09:45:36.426Z,6.10
2023-05-19T09:50:38.590Z,5.82
2023-05-19T09:55:41.818Z,7.38
2023-05-19T10:00:44.799Z,10.23
2023-05-19T10:05:47.722Z,6.82
2023-05-19T10:10:49.910Z,9.75
2023-05-19T10:20:58.029Z,6.30
2023-05-19T10:26:04.960Z,8.93
2023-05-19T10:31:11.323Z,9.52
2023-05-19T10:36:38.178Z,7.03
2023-05-19T10:41:57.991Z,8.65
2023-05-19T10:47:00.390Z,6.38
2023-05-19T10:52:02.820Z,9.57
2023-05-19T10:57:05.140Z,8.40
2023-05-19T11:02:08.685Z,8.00
2023-05-19T11:07:10.910Z,7.47
2023-05-19T11:12:13.132Z,4.93
2023-05-19T11:17:16.271Z,7.80
2023-05-19T11:22:23.891Z,6.10
2023-05-19T11:27:33.822Z,8.57
2023-05-19T11:32:39.501Z,7.68
2023-05-19T11:37:42.682Z,5.18
2023-05-19T11:42:45.231Z,4.85
2023-05-19T11:48:00.272Z,5.55
2023-05-19T11:53:04.378Z,8.63
2023-05-19T11:58:07.191Z,6.40
2023-05-19T12:03:10.085Z,10.82
2023-05-19T12:08:12.708Z,8.88
2023-05-19T12:13:14.874Z,8.57
2023-05-19T12:18:18.111Z,5.63
2023-05-19T12:23:20.481Z,9.43
2023-05-19T12:28:22.648Z,5.68
2023-05-19T12:33:25.345Z,9.48
2023-05-19T12:38:27.474Z,7.90
2023-05-19T12:43:29.981Z,8.07
2023-05-19T12:48:32.100Z,6.45
2023-05-19T12:53:34.770Z,10.30
2023-05-19T12:58:37.463Z,6.38
2023-05-19T13:03:41.875Z,7.53
2023-05-19T13:08:47.291Z,7.55
2023-05-19T13:13:49.384Z,5.97
2023-05-19T13:18:51.695Z,6.53
2023-05-19T13:23:53.915Z,5.25
2023-05-19T13:28:56.711Z,4.55
2023-05-19T13:33:58.820Z,6.78
2023-05-19T13:39:01.233Z,5.15
2023-05-19T13:44:03.341Z,4.75
2023-05-19T13:49:05.554Z,4.43
2023-05-19T13:54:07.604Z,3.50
2023-05-19T13:59:09.880Z,7.45
2023-05-19T14:04:12.192Z,7.70
2023-05-19T14:09:15.005Z,6.10
2023-05-19T14:14:17.565Z,6.35
2023-05-19T14:19:20.142Z,6.32
2023-05-19T14:24:22.336Z,5.47
2023-05-19T14:29:24.384Z,5.45
2023-05-19T14:34:26.488Z,5.50
2023-05-19T14:39:30.032Z,7.57
2023-05-19T14:44:35.352Z,7.90
2023-05-19T14:49:37.515Z,7.82
2023-05-19T14:54:39.867Z,6.95
2023-05-19T14:59:42.543Z,7.57
2023-05-19T15:04:44.786Z,5.85
2023-05-19T15:09:47.017Z,5.40
2023-05-19T15:14:49.355Z,9.30
2023-05-19T15:19:51.548Z,8.10
2023-05-19T15:24:53.921Z,8.15
2023-05-19T15:29:56.133Z,5.40
2023-05-19T15:34:58.164Z,7.47
2023-05-19T15:40:00.350Z,8.23
2023-05-19T15:45:02.576Z,5.68
2023-05-19T15:50:04.973Z,7.85
2023-05-19T15:55:07.791Z,7.10
2023-05-19T16:00:10.843Z,5.38
2023-05-19T16:05:12.948Z,5.72
2023-05-19T16:10:15.094Z,7.35
2023-05-19T16:15:17.321Z,8.43
2023-05-19T16:20:21.300Z,9.65
2023-05-19T16:25:24.279Z,8.38
2023-05-19T16:30:27.923Z,8.73
2023-05-19T16:35:30.922Z,6.13
2023-05-19T16:40:33.496Z,5.50
2023-05-19T16:45:35.852Z,5.85
2023-05-19T16:50:39.671Z,5.93
2023-05-19T16:55:41.913Z,6.50
2023-05-19T17:00:44.163Z,5.57
2023-05-19T17:05:46.423Z,9.30
2023-05-19T17:10:48.813Z,6.53
2023-05-19T17:15:52.593Z,7.70
2023-05-19T17:20:55.121Z,6.97
2023-05-19T17:25:57.626Z,5.97
2023-05-19T17:30:59.847Z,7.20
2023-05-19T17:36:03.649Z,5.60
2023-05-19T17:41:09.906Z,5.82
2023-05-19T17:46:12.166Z,6.00
2023-05-19T17:51:14.376Z,9.32
2023-05-19T17:56:17.306Z,7.13
2023-05-19T18:01:23.690Z,10.15
2023-05-19T18:06:28.550Z,5.20
2023-05-19T18:11:30.674Z,5.65
2023-05-19T18:16:33.051Z,5.53
2023-05-19T18:21:35.180Z,5.75
2023-05-19T18:26:41.672Z,5.45
2023-05-19T18:31:44.071Z,5.78
2023-05-19T18:36:46.347Z,10.13
2023-05-19T18:41:49.613Z,6.10
2023-05-19T18:46:51.868Z,6.38
2023-05-19T18:51:54.417Z,8.40
2023-05-19T18:56:56.636Z,6.30
2023-05-19T19:01:58.754Z,8.63
2023-05-19T19:07:01.328Z,9.88
2023-05-19T19:12:03.578Z,11.77
2023-05-19T19:17:06.058Z,9.27
2023-05-19T19:22:08.341Z,10.75
2023-05-19T19:27:10.543Z,5.72
2023-05-19T19:32:12.643Z,5.85
2023-05-19T19:37:14.789Z,7.28
2023-05-19T19:42:16.861Z,7.18
2023-05-19T19:47:18.944Z,8.07
2023-05-19T19:52:21.170Z,6.55
2023-05-19T19:57:24.411Z,11.10
2023-05-19T20:02:26.795Z,13.70
2023-05-19T20:07:29.293Z,7.38
2023-05-19T20:12:31.489Z,14.98
2023-05-19T20:17:33.631Z,7.45
2023-05-19T20:22:37.123Z,11.98
2023-05-19T20:27:39.268Z,6.65
2023-05-19T20:32:41.493Z,9.93
2023-05-19T20:37:43.837Z,13.27
2023-05-19T20:42:46.302Z,8.60
2023-05-19T20:47:48.424Z,8.52
2023-05-19T20:52:50.519Z,9.07
2023-05-19T20:57:52.565Z,7.72
2023-05-19T21:02:54.689Z,8.43
2023-05-19T21:07:56.847Z,13.20
2023-05-19T21:12:59.017Z,7.68
2023-05-19T21:18:01.317Z,9.93
2023-05-19T21:23:03.849Z,8.82
2023-05-19T21:28:06.410Z,10.50
2023-05-19T21:33:08.636Z,13.48
2023-05-19T21:38:22.781Z,8.95
2023-05-19T21:43:26.180Z,9.98
2023-05-19T21:48:28.276Z,6.78
2023-05-19T21:53:31.558Z,7.55
2023-05-19T21:58:33.670Z,9.13
2023-05-19T22:03:35.888Z,8.82
2023-05-19T22:08:38.023Z,7.07
2023-05-19T22:13:41.170Z,9.38
2023-05-19T22:18:43.441Z,6.40
2023-05-19T22:23:45.552Z,7.55
2023-05-19T22:28:49.348Z,7.18
2023-05-19T22:33:51.702Z,8.18
2023-05-19T22:38:53.906Z,9.50
2023-05-19T22:43:56.400Z,10.93
2023-05-19T22:48:58.520Z,7.05
2023-05-19T22:54:00.677Z,5.57
2023-05-19T22:59:02.724Z,7.53
2023-05-19T23:04:05.016Z,6.38
2023-05-19T23:09:07.114Z,5.35
2023-05-19T23:14:09.187Z,8.77
2023-05-19T23:19:11.235Z,7.35
2023-05-19T23:24:13.609Z,8.45
2023-05-19T23:29:15.769Z,10.18
2023-05-19T23:34:17.922Z,7.18
2023-05-19T23:39:19.960Z,8.15
2023-05-19T23:44:22.015Z,9.27
2023-05-19T23:49:24.127Z,8.98
2023-05-19T23:54:26.703Z,11.50
2023-05-19T23:59:28.793Z,7.30
